Terminal Aerodrome Forecast
Issued by NWS

Home | Current Version | Previous Version | Text Only | Print | Product List | Glossary On
Versions: 1 2 3 4 5 6 7 8 9 10 11 12 13 14 15 16 17 18
000
FTUS43 KLSX 270244 AAB
TAFUIN
TAF AMD
KUIN 270244Z 2703/2724 25006KT P6SM BKN060
      TEMPO 2703/2704 VRB20KT 3SM -TSRA BKN040CB
     FM270500 VRB03KT P6SM FEW100
      TEMPO 2709/2713 5SM BR
     FM271600 16005KT P6SM FEW200=

USA.gov is the U.S. government's official web portal to all federal, state and local government web resources and services.